ΕΜΥ, Εθνική Μετεωρολογική Υπηρεσία - Δελτία Καιρού, Προγνώσεις

ΑΕΡΟΝΑΥΤΙΛΙΑ

GREEK AIRPORTS CODES

TAF LGAV 261700Z 2618/2718 02008KT 9999 SCT018 BKN025 PROB40 TEMPO 2618/2621 5000 RA FEW015 FEW018TCU BKN020 PROB30 TEMPO 2618/2620 2000 TSRA SCT010 FEW016CB BKN020 PROB40 TEMPO 2703/2712 5000 RA FEW015 FEW018TCU BKN020 BECMG 2704/2706 VRB05KT BECMG 2712/2714 FEW018 SCT025=

EUROPEAN AIRPORTS CODES

LFPO 262130Z 36010KT 330V040 9999 FEW023 BKN038 05/02 Q1024NOSIG=